Time;durP1;ratioP1;P1;durP2;ratioP2;P2;SDS_P1;SDS_P2;PMS_P1;PMS_P2;Temp;Humidity;BMP_temperature;BMP_pressure;BME280_temperature;BME280_humidity;BME280_pressure;Samples;Min_cycle;Max_cycle;Signal;HPM_P1;HPM_P2
2022/11/15 00:00:29;;;;;;;1.00;0.80;;;;;;;-3.55;74.24;94492.16;6190660;28;20034;-65
2022/11/15 00:03:31;;;;;;;0.80;0.43;;;;;;;-3.70;74.35;94479.16;6195919;28;20426;-65
2022/11/15 00:06:34;;;;;;;0.90;0.77;;;;;;;-3.65;74.13;94500.31;6196682;28;20038;-64
2022/11/15 00:09:41;;;;;;;0.95;0.60;;;;;;;-3.63;74.19;94498.50;6198475;28;20042;-65
2022/11/15 00:12:50;;;;;;;0.55;0.50;;;;;;;-3.65;73.79;94492.63;6198002;28;20038;-65
2022/11/15 00:15:59;;;;;;;0.70;0.50;;;;;;;-3.67;74.45;94509.84;6193670;28;20065;-65
2022/11/15 00:19:03;;;;;;;0.47;0.47;;;;;;;-3.67;74.30;94502.13;6197236;28;20038;-66
2022/11/15 00:22:07;;;;;;;0.68;0.50;;;;;;;-3.57;73.92;94514.53;6195505;28;20042;-65
2022/11/15 00:25:13;;;;;;;0.52;0.52;;;;;;;-3.61;73.63;94512.09;6200087;28;20046;-66
2022/11/15 00:28:17;;;;;;;0.68;0.63;;;;;;;-3.56;73.04;94511.06;6199410;28;20042;-66
2022/11/15 00:31:26;;;;;;;1.63;0.70;;;;;;;-3.64;73.73;94519.97;6194008;28;20046;-66
2022/11/15 00:34:30;;;;;;;0.73;0.60;;;;;;;-3.70;73.56;94520.25;6191177;28;20142;-65
2022/11/15 00:37:34;;;;;;;1.00;0.80;;;;;;;-3.71;73.72;94525.47;6192045;28;20509;-65
2022/11/15 00:40:38;;;;;;;1.75;0.63;;;;;;;-3.65;73.88;94533.72;6197892;28;20465;-65
2022/11/15 00:43:47;;;;;;;0.77;0.70;;;;;;;-3.67;73.51;94525.25;6182138;28;20038;-66
2022/11/15 00:46:50;;;;;;;0.80;0.77;;;;;;;-3.62;73.98;94533.59;6196768;28;20050;-65
2022/11/15 00:49:54;;;;;;;0.70;0.70;;;;;;;-3.64;73.80;94529.41;6195538;28;20488;-66
2022/11/15 00:52:59;;;;;;;1.80;0.82;;;;;;;-3.61;74.06;94534.41;6198643;28;20057;-65
2022/11/15 00:56:00;;;;;;;0.70;0.70;;;;;;;-3.63;74.28;94537.03;6198722;28;20050;-66
2022/11/15 00:59:06;;;;;;;1.48;0.65;;;;;;;-3.62;74.33;94540.47;6195714;28;20189;-66
2022/11/15 01:02:11;;;;;;;0.65;0.63;;;;;;;-3.62;74.53;94538.72;6198508;28;20513;-64
2022/11/15 01:05:15;;;;;;;1.15;0.80;;;;;;;-3.64;74.57;94540.53;6197131;28;20140;-65
2022/11/15 01:08:21;;;;;;;1.90;0.70;;;;;;;-3.64;74.89;94539.69;6210908;28;20513;-66
2022/11/15 01:11:28;;;;;;;1.05;0.75;;;;;;;-3.62;75.03;94537.91;6205400;28;20425;-66
2022/11/15 01:14:37;;;;;;;1.15;0.73;;;;;;;-3.53;75.12;94541.78;6195752;28;20132;-65
2022/11/15 01:17:40;;;;;;;0.68;0.68;;;;;;;-3.52;75.04;94548.56;6195387;28;20046;-65
2022/11/15 01:20:47;;;;;;;1.02;0.80;;;;;;;-3.53;75.27;94550.31;6193054;28;20038;-66
2022/11/15 01:23:54;;;;;;;1.10;0.80;;;;;;;-3.53;75.35;94546.91;6191240;28;20046;-65
2022/11/15 01:26:55;;;;;;;1.95;0.70;;;;;;;-3.50;75.43;94557.06;6194822;28;20149;-65
2022/11/15 01:29:58;;;;;;;0.88;0.65;;;;;;;-3.51;75.25;94555.38;6191906;28;20132;-66
2022/11/15 01:33:02;;;;;;;0.70;0.70;;;;;;;-3.55;74.92;94543.56;6197131;28;20050;-65
2022/11/15 01:36:06;;;;;;;0.73;0.63;;;;;;;-3.64;75.24;94555.94;6190204;28;20177;-65
2022/11/15 01:39:10;;;;;;;0.82;0.60;;;;;;;-3.65;74.90;94559.44;6199429;28;20397;-64
2022/11/15 01:42:13;;;;;;;1.95;1.00;;;;;;;-3.74;75.04;94561.59;6197707;28;20042;-65
2022/11/15 01:45:18;;;;;;;1.13;0.70;;;;;;;-3.73;75.15;94561.53;6195164;28;20046;-64
2022/11/15 01:48:21;;;;;;;0.77;0.57;;;;;;;-3.82;74.99;94561.97;6199517;28;20493;-64
2022/11/15 01:51:33;;;;;;;1.05;0.90;;;;;;;-3.80;75.09;94565.25;6197467;28;20038;-65
2022/11/15 01:54:38;;;;;;;1.17;0.65;;;;;;;-3.86;75.05;94560.41;6197597;28;20162;-65
2022/11/15 01:57:46;;;;;;;0.73;0.70;;;;;;;-3.87;75.34;94564.72;6195839;28;20506;-65
2022/11/15 02:00:51;;;;;;;0.95;0.80;;;;;;;-3.90;74.96;94574.31;6189254;28;20049;-65
2022/11/15 02:04:04;;;;;;;1.02;0.73;;;;;;;-3.94;75.13;94577.91;6192712;28;20046;-65
2022/11/15 02:07:10;;;;;;;1.65;0.90;;;;;;;-3.97;75.22;94580.63;6188147;28;20038;-66
2022/11/15 02:10:19;;;;;;;2.95;0.95;;;;;;;-4.07;75.25;94573.34;6178118;28;20043;-65
2022/11/15 02:13:21;;;;;;;1.90;0.93;;;;;;;-4.01;75.52;94584.25;6195468;28;20046;-65
2022/11/15 02:16:34;;;;;;;1.63;1.10;;;;;;;-4.07;75.29;94588.75;6191746;28;20042;-65
2022/11/15 02:19:54;;;;;;;1.23;0.93;;;;;;;-4.09;75.54;94587.97;6195986;28;20046;-66
2022/11/15 02:23:28;;;;;;;1.38;1.00;;;;;;;-4.06;75.25;94595.53;6195546;28;20065;-65
2022/11/15 02:27:05;;;;;;;2.47;1.00;;;;;;;-4.05;75.00;94598.94;6180152;28;20192;-66
2022/11/15 02:30:24;;;;;;;2.47;1.20;;;;;;;-4.11;75.28;94597.47;6181179;28;20038;-65
2022/11/15 02:33:56;;;;;;;1.25;1.02;;;;;;;-4.10;74.78;94609.44;6174305;28;20422;-65
2022/11/15 02:37:17;;;;;;;1.20;0.73;;;;;;;-4.08;75.26;94606.78;6169770;28;20054;-65
2022/11/15 02:40:32;;;;;;;1.45;1.13;;;;;;;-4.14;75.22;94597.59;6172858;28;20053;-65
2022/11/15 02:43:57;;;;;;;1.15;0.90;;;;;;;-4.18;75.09;94611.50;6171531;28;20042;-65
2022/11/15 02:47:13;;;;;;;2.33;1.40;;;;;;;-4.17;75.49;94613.16;6169194;28;20047;-65
2022/11/15 02:50:22;;;;;;;1.38;1.10;;;;;;;-4.16;75.37;94614.84;6170489;28;20166;-67
2022/11/15 02:53:27;;;;;;;0.98;0.88;;;;;;;-4.17;75.46;94618.28;6174344;28;20038;-65
2022/11/15 02:56:28;;;;;;;2.13;1.02;;;;;;;-4.17;75.22;94623.41;6171859;28;20517;-65
2022/11/15 02:59:38;;;;;;;1.88;1.30;;;;;;;-4.12;75.25;94631.75;6178298;28;20051;-66
2022/11/15 03:03:09;;;;;;;2.10;1.02;;;;;;;-4.04;75.55;94633.19;6176763;28;20046;-65
2022/11/15 03:06:36;;;;;;;1.40;1.17;;;;;;;-4.03;74.98;94635.66;6179669;28;20046;-65
2022/11/15 03:09:54;;;;;;;1.83;1.13;;;;;;;-4.03;74.78;94629.69;6188384;28;20038;-65
2022/11/15 03:13:11;;;;;;;1.38;1.00;;;;;;;-4.03;75.16;94645.09;6194477;28;20053;-66
2022/11/15 03:16:26;;;;;;;1.58;1.20;;;;;;;-4.06;75.28;94640.94;6191501;28;20501;-66
2022/11/15 03:19:51;;;;;;;3.03;1.30;;;;;;;-4.02;75.38;94639.06;6196485;28;20054;-65
2022/11/15 03:23:00;;;;;;;3.33;1.20;;;;;;;-4.01;75.50;94653.59;6192541;28;20030;-65
2022/11/15 03:26:08;;;;;;;2.83;1.17;;;;;;;-4.00;75.18;94650.94;6186323;28;20132;-65
2022/11/15 03:29:22;;;;;;;2.47;1.73;;;;;;;-3.95;75.25;94658.47;6195572;28;20481;-66
2022/11/15 03:32:34;;;;;;;2.83;1.73;;;;;;;-3.99;75.15;94662.91;6192762;28;20046;-65
2022/11/15 03:35:42;;;;;;;1.65;1.40;;;;;;;-3.93;75.34;94672.91;6195997;28;20050;-65
2022/11/15 03:38:44;;;;;;;2.08;1.20;;;;;;;-3.93;75.28;94669.50;6188248;28;20050;-65
2022/11/15 03:42:03;;;;;;;3.20;1.33;;;;;;;-3.89;75.22;94673.59;6182019;28;20053;-66
2022/11/15 03:45:10;;;;;;;1.42;1.33;;;;;;;-3.89;75.30;94678.75;6164192;28;20047;-65
2022/11/15 03:48:17;;;;;;;3.75;1.90;;;;;;;-3.88;75.55;94680.41;6175585;28;20047;-66
2022/11/15 03:51:20;;;;;;;3.30;2.15;;;;;;;-3.88;75.02;94681.25;6179592;28;20050;-66
2022/11/15 03:54:30;;;;;;;3.28;2.05;;;;;;;-3.88;74.70;94685.53;6179037;28;20101;-66
2022/11/15 03:57:33;;;;;;;2.13;1.70;;;;;;;-3.92;75.08;94687.41;6155844;28;20108;-66
2022/11/15 04:00:40;;;;;;;5.13;3.05;;;;;;;-3.91;75.17;94694.19;6175988;28;20046;-66
2022/11/15 04:03:45;;;;;;;2.75;2.20;;;;;;;-3.89;75.02;94699.28;6172806;28;20034;-66
2022/11/15 04:06:46;;;;;;;5.97;4.50;;;;;;;-3.80;74.71;94708.34;6179764;28;20092;-66
2022/11/15 04:10:01;;;;;;;4.53;2.55;;;;;;;-3.79;74.55;94705.72;6181992;28;20035;-66
2022/11/15 04:13:04;;;;;;;2.15;1.63;;;;;;;-3.78;74.46;94702.22;6172676;28;20038;-66
2022/11/15 04:16:07;;;;;;;2.65;1.50;;;;;;;-3.76;74.78;94709.88;6173923;28;20050;-65
2022/11/15 04:25:59;;;;;;;3.38;1.30;;;;;;;-3.58;74.41;94721.91;6195684;28;20129;-65
2022/11/15 04:32:38;;;;;;;1.88;1.20;;;;;;;-3.43;73.64;94733.25;6150503;28;20050;-65
2022/11/15 04:35:42;;;;;;;1.10;0.98;;;;;;;-3.52;73.97;94731.09;6186579;28;20042;-65
2022/11/15 04:38:46;;;;;;;1.70;1.10;;;;;;;-3.48;73.19;94740.31;6176454;28;20086;-64
2022/11/15 04:41:50;;;;;;;1.58;1.30;;;;;;;-3.48;73.53;94740.31;6176877;28;20046;-65
2022/11/15 04:44:55;;;;;;;2.08;1.10;;;;;;;-3.40;73.70;94748.53;6184605;28;20537;-66
2022/11/15 04:47:59;;;;;;;1.88;1.00;;;;;;;-3.34;72.69;94753.44;6184383;28;20050;-65
2022/11/15 04:51:03;;;;;;;1.10;0.73;;;;;;;-3.30;72.80;94749.81;6180341;28;20046;-65
2022/11/15 04:54:07;;;;;;;0.98;0.75;;;;;;;-3.29;72.63;94751.47;6179482;28;20034;-65
2022/11/15 04:57:13;;;;;;;1.85;0.75;;;;;;;-3.19;72.65;94741.63;6177564;28;20042;-65
2022/11/15 05:00:16;;;;;;;2.63;0.80;;;;;;;-3.11;71.96;94748.97;6180880;28;20133;-65
2022/11/15 05:06:43;;;;;;;1.67;0.93;;;;;;;-3.06;71.21;94767.59;6181314;28;20104;-65
2022/11/15 05:09:45;;;;;;;0.75;0.75;;;;;;;-3.05;72.00;94774.44;6174261;28;20436;-65
2022/11/15 05:12:49;;;;;;;1.67;0.70;;;;;;;-2.87;71.74;94773.56;6187373;28;20042;-65
2022/11/15 05:15:52;;;;;;;0.93;0.77;;;;;;;-2.69;70.56;94776.19;6182775;28;20133;-66
2022/11/15 05:18:59;;;;;;;0.98;0.88;;;;;;;-2.58;69.04;94773.97;6183108;28;20038;-65
2022/11/15 05:22:03;;;;;;;0.63;0.57;;;;;;;-2.47;67.38;94776.84;6198916;28;20046;-65
2022/11/15 05:25:06;;;;;;;1.35;0.70;;;;;;;-2.49;66.82;94778.69;6199133;28;20038;-65
2022/11/15 05:28:12;;;;;;;1.02;0.70;;;;;;;-2.57;67.66;94785.94;6197212;28;20421;-65
2022/11/15 05:31:15;;;;;;;0.80;0.80;;;;;;;-2.32;67.25;94785.59;6193889;28;20042;-65
2022/11/15 05:34:18;;;;;;;2.33;1.10;;;;;;;-2.30;67.42;94789.75;6178495;28;20758;-65
2022/11/15 05:37:22;;;;;;;0.40;0.40;;;;;;;-2.12;66.43;94789.81;6181129;28;20057;-65
2022/11/15 05:40:23;;;;;;;0.60;0.60;;;;;;;-2.19;65.70;94791.00;6178548;28;20053;-65
2022/11/15 05:43:25;;;;;;;0.73;0.60;;;;;;;-2.27;64.36;94792.19;6181106;28;20053;-66
2022/11/15 05:46:36;;;;;;;1.27;0.80;;;;;;;-2.27;64.35;94799.91;6181725;28;20042;-65
2022/11/15 05:49:44;;;;;;;1.05;0.63;;;;;;;-2.23;64.38;94804.94;6177637;28;21897;-64
2022/11/15 05:52:50;;;;;;;1.05;0.65;;;;;;;-2.10;62.75;94800.84;6177538;28;20057;-65
2022/11/15 05:55:54;;;;;;;0.95;0.50;;;;;;;-2.09;63.60;94805.13;6180630;28;20034;-65
2022/11/15 05:59:00;;;;;;;0.63;0.40;;;;;;;-2.07;63.53;94800.69;6180681;28;20046;-65
2022/11/15 06:02:06;;;;;;;0.82;0.40;;;;;;;-2.01;63.79;94802.97;6181426;28;20046;-65
2022/11/15 06:05:10;;;;;;;0.85;0.75;;;;;;;-1.86;62.62;94807.41;6179256;28;20046;-65
2022/11/15 06:08:19;;;;;;;1.75;0.70;;;;;;;-1.89;62.50;94815.28;6184017;28;20060;-65
2022/11/15 06:11:23;;;;;;;0.70;0.50;;;;;;;-1.66;62.87;94813.31;6176293;28;20054;-65
2022/11/15 06:14:24;;;;;;;1.33;0.70;;;;;;;-1.33;61.53;94812.50;6192976;28;20046;-65
2022/11/15 06:17:31;;;;;;;0.70;0.40;;;;;;;-1.21;59.79;94809.31;6195985;28;20165;-65
2022/11/15 06:20:35;;;;;;;1.00;0.80;;;;;;;-1.00;60.20;94821.09;6194115;28;20524;-65
2022/11/15 06:23:36;;;;;;;0.70;0.60;;;;;;;-0.61;59.17;94822.47;6191841;28;20043;-65
2022/11/15 06:26:40;;;;;;;1.63;0.50;;;;;;;-0.28;57.54;94824.97;6185286;28;20058;-65
2022/11/15 06:29:46;;;;;;;0.80;0.45;;;;;;;0.19;55.69;94839.56;6176175;28;20042;-65
2022/11/15 06:32:59;;;;;;;0.50;0.50;;;;;;;0.92;54.91;94822.44;6182023;28;20042;-65
2022/11/15 06:36:05;;;;;;;0.98;0.77;;;;;;;1.73;52.53;94841.66;6182330;28;20065;-66
2022/11/15 06:39:08;;;;;;;1.33;0.70;;;;;;;2.68;51.12;94830.31;6183050;28;20409;-66
2022/11/15 06:42:13;;;;;;;0.82;0.50;;;;;;;3.55;49.98;94835.69;6176550;28;20054;-66
2022/11/15 06:45:16;;;;;;;0.50;0.40;;;;;;;4.42;48.90;94846.88;6180722;28;20509;-66
2022/11/15 06:48:18;;;;;;;0.80;0.55;;;;;;;5.48;47.87;94846.75;6178894;28;20532;-65
2022/11/15 06:51:22;;;;;;;0.40;0.40;;;;;;;5.75;45.11;94847.22;6177069;28;20046;-65
2022/11/15 06:54:23;;;;;;;;;;;;;;;5.37;42.62;94845.78;6178741;28;20141;-65
2022/11/15 06:57:26;;;;;;;0.70;0.70;;;;;;;4.17;43.66;94809.59;6178627;28;19933;-65
2022/11/15 07:00:29;;;;;;;0.65;0.40;;;;;;;4.63;43.99;94844.44;6177918;28;20852;-65
2022/11/15 07:03:31;;;;;;;1.10;0.50;;;;;;;4.63;41.47;94852.25;6178861;28;21330;-64
2022/11/15 07:06:37;;;;;;;0.40;0.35;;;;;;;3.71;43.25;94846.69;6178447;28;20054;-65
2022/11/15 07:09:42;;;;;;;0.50;0.45;;;;;;;3.00;43.82;94855.06;6184866;28;20497;-65
2022/11/15 07:12:50;;;;;;;0.30;0.30;;;;;;;3.09;44.15;94854.47;6173873;28;20141;-65
2022/11/15 07:15:51;;;;;;;0.50;0.50;;;;;;;3.78;42.79;94863.53;6192569;28;20108;-65
2022/11/15 07:18:52;;;;;;;0.43;0.43;;;;;;;4.97;40.79;94865.41;6195894;28;20054;-65
2022/11/15 07:21:56;;;;;;;0.35;0.35;;;;;;;6.47;38.02;94861.56;6195060;28;20055;-65
2022/11/15 07:25:00;;;;;;;0.30;0.30;;;;;;;7.70;37.20;94860.06;6190877;28;20050;-66
2022/11/15 07:28:04;;;;;;;1.17;0.40;;;;;;;8.65;35.97;94864.06;6180258;28;20430;-65
2022/11/15 07:31:10;;;;;;;0.75;0.60;;;;;;;8.34;33.04;94866.72;6175444;28;20057;-65
2022/11/15 07:34:17;;;;;;;0.70;0.50;;;;;;;5.98;35.02;94861.09;6179378;28;20042;-65
2022/11/15 07:37:28;;;;;;;0.30;0.30;;;;;;;4.75;37.44;94848.75;6178599;28;20046;-65
2022/11/15 07:40:41;;;;;;;0.40;0.40;;;;;;;5.33;37.35;94870.44;6179043;28;20042;-65
2022/11/15 07:43:44;;;;;;;0.77;0.50;;;;;;;5.97;36.44;94871.66;6180413;28;20046;-64
2022/11/15 07:46:46;;;;;;;1.20;0.60;;;;;;;6.59;34.95;94873.63;6174917;28;20572;-64
2022/11/15 07:49:50;;;;;;;1.17;0.63;;;;;;;7.23;35.05;94880.59;6175810;28;20081;-64
2022/11/15 07:52:59;;;;;;;1.55;0.70;;;;;;;7.28;33.53;94888.09;6179212;28;20566;-65
2022/11/15 07:56:09;;;;;;;1.42;0.50;;;;;;;6.62;34.26;94881.22;6177035;28;20046;-65
2022/11/15 07:59:12;;;;;;;0.47;0.47;;;;;;;5.71;35.60;94890.13;6174247;28;20046;-65
2022/11/15 08:02:16;;;;;;;0.70;0.70;;;;;;;5.37;36.32;94891.91;6176701;28;20054;-65
2022/11/15 08:05:20;;;;;;;0.90;0.50;;;;;;;4.44;38.04;94886.63;6178746;28;20053;-64
2022/11/15 08:08:21;;;;;;;0.30;0.30;;;;;;;4.66;37.81;94891.94;6194746;28;20101;-65
2022/11/15 08:11:30;;;;;;;1.10;0.63;;;;;;;5.15;37.77;94887.47;6196912;28;20054;-64
2022/11/15 08:14:39;;;;;;;0.82;0.70;;;;;;;5.58;37.07;94887.66;6194869;28;20058;-65
2022/11/15 08:17:43;;;;;;;1.02;0.40;;;;;;;5.58;36.84;94889.44;6199461;28;20046;-65
2022/11/15 08:20:44;;;;;;;0.35;0.30;;;;;;;4.92;36.92;94897.81;6197244;28;20042;-64
2022/11/15 08:23:46;;;;;;;0.75;0.35;;;;;;;4.52;37.99;94909.50;6177511;28;20420;-65
2022/11/15 08:26:52;;;;;;;0.60;0.40;;;;;;;4.17;38.42;94905.06;6182119;28;20496;-66
2022/11/15 08:29:54;;;;;;;1.60;0.73;;;;;;;3.60;39.07;94912.47;6181227;28;21189;-65
2022/11/15 08:33:01;;;;;;;1.00;0.50;;;;;;;3.15;39.78;94912.03;6175302;28;20081;-65
2022/11/15 08:36:03;;;;;;;0.50;0.50;;;;;;;2.22;41.47;94913.75;6178805;28;20057;-64
2022/11/15 08:39:09;;;;;;;0.57;0.55;;;;;;;1.35;42.80;94925.16;6180080;28;20050;-64
2022/11/15 08:42:10;;;;;;;0.80;0.70;;;;;;;1.15;43.60;94928.09;6179448;28;20050;-64
2022/11/15 08:45:17;;;;;;;0.68;0.55;;;;;;;1.31;43.27;94934.03;6175004;28;20046;-64
2022/11/15 08:48:21;;;;;;;0.40;0.40;;;;;;;1.66;42.64;94930.25;6186225;28;20042;-63
2022/11/15 08:51:25;;;;;;;0.43;0.43;;;;;;;1.24;43.29;94932.72;6177610;28;20141;-64
2022/11/15 08:54:29;;;;;;;0.75;0.57;;;;;;;0.59;44.56;94929.63;6187925;28;20066;-63
2022/11/15 08:57:36;;;;;;;0.52;0.40;;;;;;;0.15;44.92;94944.13;6196343;28;20042;-63
2022/11/15 09:00:42;;;;;;;0.60;0.50;;;;;;;-0.39;46.28;94935.00;6196323;28;20494;-64
2022/11/15 09:03:46;;;;;;;0.85;0.68;;;;;;;-0.68;47.35;94947.66;6193894;28;20038;-63
2022/11/15 09:06:48;;;;;;;1.88;0.80;;;;;;;-0.88;48.49;94947.88;6194271;28;20184;-63
2022/11/15 09:09:50;;;;;;;1.30;0.65;;;;;;;-0.96;48.55;94948.28;6197492;28;20049;-63
2022/11/15 09:12:51;;;;;;;0.88;0.60;;;;;;;-1.17;49.97;94957.91;6195097;28;20054;-64
2022/11/15 09:16:00;;;;;;;0.98;0.50;;;;;;;-1.17;50.58;94957.91;6190439;28;20054;-63
2022/11/15 09:19:05;;;;;;;1.08;0.70;;;;;;;-1.22;50.83;94963.31;6171876;28;20422;-64
2022/11/15 09:22:08;;;;;;;2.40;0.70;;;;;;;-1.24;51.11;94966.88;6182101;28;20049;-64
2022/11/15 09:25:13;;;;;;;1.20;0.68;;;;;;;-1.23;51.86;94973.69;6160156;28;20061;-74
2022/11/15 09:28:18;;;;;;;0.60;0.50;;;;;;;-1.06;51.75;94976.28;6177210;28;20109;-76
2022/11/15 09:31:24;;;;;;;2.15;0.55;;;;;;;-0.77;51.10;94967.06;6181090;28;20042;-77
2022/11/15 09:34:30;;;;;;;1.05;0.50;;;;;;;-0.10;49.46;94961.88;6189203;28;20045;-67
2022/11/15 09:37:37;;;;;;;0.47;0.47;;;;;;;0.42;49.04;94990.06;6198170;28;20053;-67
2022/11/15 09:40:42;;;;;;;0.65;0.50;;;;;;;0.64;48.14;94994.91;6195852;28;20034;-69
2022/11/15 09:43:46;;;;;;;0.50;0.47;;;;;;;0.33;48.37;95001.75;6195514;28;20057;-71
2022/11/15 09:46:52;;;;;;;0.73;0.55;;;;;;;-0.05;49.03;95002.09;6194461;28;20050;-70
2022/11/15 09:49:55;;;;;;;1.45;0.80;;;;;;;-0.29;50.15;95005.94;6197773;28;20050;-70
2022/11/15 09:52:57;;;;;;;1.25;0.90;;;;;;;-0.34;49.88;95003.63;6198039;28;20042;-69
2022/11/15 09:56:22;;;;;;;5.05;1.60;;;;;;;-0.69;51.30;95011.41;6199643;28;20042;-69
2022/11/15 09:59:33;;;;;;;0.80;0.80;;;;;;;-0.74;51.09;95020.31;6196621;28;20517;-70
2022/11/15 10:02:51;;;;;;;1.42;0.70;;;;;;;-0.95;52.25;95025.63;6193174;28;20050;-69
2022/11/15 10:06:02;;;;;;;0.80;0.60;;;;;;;-0.77;52.52;95034.19;6190823;28;20039;-69
2022/11/15 10:09:29;;;;;;;1.17;0.57;;;;;;;-0.68;52.51;95038.94;6196366;28;20093;-70
2022/11/15 10:12:38;;;;;;;0.40;0.38;;;;;;;-0.77;51.68;95043.69;6194102;28;20054;-69
2022/11/15 10:15:48;;;;;;;0.80;0.47;;;;;;;-0.82;51.91;95040.50;6191526;28;20046;-69
2022/11/15 10:18:51;;;;;;;0.60;0.45;;;;;;;-0.52;51.43;95062.22;6191457;28;20086;-69
2022/11/15 10:22:19;;;;;;;0.50;0.50;;;;;;;-0.24;51.29;95066.00;6193189;28;20038;-69
2022/11/15 10:25:33;;;;;;;3.60;1.10;;;;;;;-0.21;50.92;95072.75;6193522;28;20042;-68
2022/11/15 10:28:37;;;;;;;0.77;0.50;;;;;;;-0.31;51.48;95070.66;6194065;28;20042;-69
2022/11/15 10:31:41;;;;;;;2.42;0.60;;;;;;;-0.39;51.29;95079.72;6195266;28;20043;-70
2022/11/15 10:34:46;;;;;;;2.05;0.60;;;;;;;-0.40;50.48;95089.19;6192375;28;20054;-70
2022/11/15 10:37:52;;;;;;;0.45;0.45;;;;;;;-0.46;50.65;95095.50;6199726;28;20046;-68
2022/11/15 10:41:11;;;;;;;1.83;0.50;;;;;;;-0.66;50.41;95087.91;6195560;28;20413;-69
2022/11/15 10:44:29;;;;;;;0.80;0.60;;;;;;;-0.87;50.64;95094.13;6194001;28;20042;-69
2022/11/15 10:47:35;;;;;;;0.88;0.63;;;;;;;-1.07;50.23;95088.19;6194728;28;20097;-69
2022/11/15 10:50:47;;;;;;;2.10;0.80;;;;;;;-1.09;50.07;95095.16;6190095;28;20141;-69
2022/11/15 10:53:56;;;;;;;3.03;0.82;;;;;;;-1.11;49.90;95107.28;6195828;28;20188;-69
2022/11/15 10:57:05;;;;;;;1.20;0.82;;;;;;;-1.27;49.66;95101.19;6192781;28;20101;-70
2022/11/15 11:00:29;;;;;;;0.68;0.55;;;;;;;-1.51;50.13;95118.63;6188448;28;20047;-69
2022/11/15 11:03:40;;;;;;;1.00;0.60;;;;;;;-1.66;49.83;95120.19;6193091;28;20149;-69
2022/11/15 11:06:53;;;;;;;0.65;0.47;;;;;;;-1.73;49.93;95129.06;6196047;28;20058;-69
2022/11/15 11:10:00;;;;;;;0.70;0.70;;;;;;;-2.03;50.03;95121.81;6171659;28;20429;-71
2022/11/15 11:13:24;;;;;;;0.98;0.68;;;;;;;-2.09;50.32;95132.38;6192710;28;20060;-66
2022/11/15 11:16:42;;;;;;;0.73;0.60;;;;;;;-2.13;50.14;95128.25;6194082;28;20042;-67
2022/11/15 11:19:57;;;;;;;1.23;0.80;;;;;;;-2.13;50.03;95130.81;6196448;28;20086;-64
2022/11/15 11:23:22;;;;;;;1.05;0.60;;;;;;;-2.35;50.74;95133.47;6192624;28;20046;-67
2022/11/15 11:26:49;;;;;;;0.90;0.70;;;;;;;-2.38;50.76;95137.00;6194654;28;20050;-67
2022/11/15 11:30:02;;;;;;;1.27;0.63;;;;;;;-2.66;51.42;95146.78;6190753;28;20140;-67
2022/11/15 11:33:16;;;;;;;0.70;0.70;;;;;;;-2.88;52.72;95147.66;6191152;28;20057;-66
2022/11/15 11:36:41;;;;;;;0.70;0.70;;;;;;;-2.90;52.90;95149.44;6190926;28;20046;-67
2022/11/15 11:40:24;;;;;;;0.70;0.70;;;;;;;-3.03;53.00;95153.41;6194078;28;20054;-66
2022/11/15 11:43:39;;;;;;;0.82;0.82;;;;;;;-3.02;53.21;95149.94;6191060;28;20037;-68
2022/11/15 11:47:09;;;;;;;1.90;0.82;;;;;;;-3.30;53.99;95166.44;6192117;28;20053;-68
2022/11/15 11:50:19;;;;;;;1.25;0.80;;;;;;;-3.31;54.87;95167.34;6198915;28;20050;-67
2022/11/15 11:53:39;;;;;;;2.35;1.00;;;;;;;-3.40;55.10;95173.69;6198395;28;20043;-67
2022/11/15 11:56:44;;;;;;;2.60;1.17;;;;;;;-3.41;55.66;95169.41;6194947;28;20078;-67
2022/11/15 11:59:55;;;;;;;2.97;1.40;;;;;;;-3.52;56.12;95165.56;6190064;28;20057;-67
2022/11/15 12:03:04;;;;;;;2.25;0.90;;;;;;;-3.56;56.46;95174.31;6197351;28;20034;-67
2022/11/15 12:06:24;;;;;;;9.43;3.38;;;;;;;-3.64;56.36;95177.97;6196631;28;20034;-66
2022/11/15 12:09:47;;;;;;;2.97;1.70;;;;;;;-3.50;56.26;95185.19;6190155;28;20552;-66
2022/11/15 12:13:01;;;;;;;3.40;1.30;;;;;;;-3.73;56.68;95188.59;6193958;28;20510;-67
2022/11/15 12:16:14;;;;;;;2.28;1.30;;;;;;;-3.69;56.57;95192.72;6138488;28;20050;-68
2022/11/15 12:19:21;;;;;;;3.92;1.13;;;;;;;-3.72;56.09;95195.41;6141772;28;20043;-66
2022/11/15 12:22:47;;;;;;;1.08;0.80;;;;;;;-3.75;55.50;95190.38;6143656;28;20051;-66
2022/11/15 12:26:02;;;;;;;1.10;0.80;;;;;;;-3.84;54.80;95206.13;6145658;28;20043;-66
2022/11/15 12:29:12;;;;;;;1.02;0.80;;;;;;;-3.91;54.42;95213.19;6149650;28;20043;-67
2022/11/15 12:32:35;;;;;;;1.27;0.85;;;;;;;-4.00;54.84;95217.81;6149728;28;20449;-66
2022/11/15 12:35:42;;;;;;;0.63;0.52;;;;;;;-3.89;54.09;95213.16;6147134;28;20046;-67
2022/11/15 12:39:00;;;;;;;0.65;0.50;;;;;;;-3.92;54.54;95226.13;6152403;28;20494;-66
2022/11/15 12:42:02;;;;;;;3.20;0.60;;;;;;;-4.04;55.29;95234.25;6150531;28;20546;-66
2022/11/15 12:45:28;;;;;;;0.68;0.55;;;;;;;-3.95;55.49;95239.91;6149034;28;20417;-66
2022/11/15 12:48:35;;;;;;;1.35;0.93;;;;;;;-4.11;56.49;95249.84;6148188;28;20055;-66
2022/11/15 12:51:43;;;;;;;1.38;0.80;;;;;;;-4.14;57.01;95255.09;6152120;28;20528;-65
2022/11/15 12:54:53;;;;;;;1.02;0.90;;;;;;;-4.15;57.29;95257.72;6146567;28;20268;-66
2022/11/15 12:58:28;;;;;;;1.15;0.75;;;;;;;-4.16;57.56;95262.03;6141747;28;20051;-67
2022/11/15 13:04:34;;;;;;;1.92;0.95;;;;;;;-4.32;58.30;95271.13;6148441;28;20051;-66
2022/11/15 13:07:40;;;;;;;1.25;0.80;;;;;;;-4.31;58.56;95268.47;6140743;28;20043;-65
2022/11/15 13:10:41;;;;;;;1.55;0.70;;;;;;;-4.40;59.05;95278.22;6150669;28;20098;-65
2022/11/15 13:13:45;;;;;;;1.48;0.65;;;;;;;-4.43;59.65;95279.16;6162745;28;20058;-67
2022/11/15 13:16:56;;;;;;;2.40;1.23;;;;;;;-4.54;59.87;95276.94;6199286;28;20375;-65
2022/11/15 13:20:06;;;;;;;1.95;0.90;;;;;;;-4.53;59.38;95277.75;6193421;28;20142;-65
2022/11/15 13:23:12;;;;;;;1.33;0.90;;;;;;;-4.64;59.23;95284.94;6192677;28;20058;-66
2022/11/15 13:26:17;;;;;;;1.75;0.82;;;;;;;-4.64;59.45;95285.81;6193628;28;20097;-65
2022/11/15 13:29:23;;;;;;;2.40;0.90;;;;;;;-4.65;59.05;95284.13;6196987;28;20046;-65
2022/11/15 13:32:25;;;;;;;1.50;0.98;;;;;;;-4.67;59.39;95285.91;6191373;28;20053;-65
2022/11/15 13:35:36;;;;;;;2.72;1.17;;;;;;;-4.59;58.96;95294.19;6197685;28;20050;-66
2022/11/15 13:38:44;;;;;;;1.58;0.70;;;;;;;-4.64;59.08;95290.94;6192243;28;20049;-66
2022/11/15 13:41:53;;;;;;;2.47;1.23;;;;;;;-4.52;58.39;95300.84;6197418;28;20061;-65
2022/11/15 13:45:04;;;;;;;1.63;0.90;;;;;;;-4.65;58.33;95298.69;6196977;28;20046;-66
2022/11/15 13:48:11;;;;;;;1.50;0.98;;;;;;;-4.57;58.47;95307.81;6197454;28;20141;-65
2022/11/15 13:51:32;;;;;;;2.20;0.95;;;;;;;-4.62;57.65;95304.56;6197390;28;20149;-65
2022/11/15 13:54:44;;;;;;;1.77;1.17;;;;;;;-4.69;57.80;95305.66;6194320;28;20065;-66
2022/11/15 13:57:59;;;;;;;1.65;1.10;;;;;;;-4.73;57.39;95301.47;6175121;28;20047;-65
2022/11/15 14:01:04;;;;;;;3.20;1.10;;;;;;;-4.87;57.46;95303.63;6196828;28;20065;-66
2022/11/15 14:04:18;;;;;;;1.92;0.90;;;;;;;-4.94;57.81;95325.22;6196374;28;20038;-67
2022/11/15 14:07:22;;;;;;;1.33;1.23;;;;;;;-4.90;58.07;95324.22;6196422;28;20723;-66
2022/11/15 14:10:40;;;;;;;1.95;1.10;;;;;;;-5.02;58.10;95305.75;6191749;28;20042;-66
2022/11/15 14:14:07;;;;;;;2.33;1.35;;;;;;;-4.96;58.67;95326.09;6194327;28;20170;-66
2022/11/15 14:17:28;;;;;;;3.20;1.08;;;;;;;-4.96;58.56;95328.66;6197163;28;20093;-65
2022/11/15 14:20:33;;;;;;;1.40;1.10;;;;;;;-4.98;59.12;95333.00;6195870;28;20057;-66
2022/11/15 14:23:34;;;;;;;2.28;1.30;;;;;;;-4.96;59.39;95335.50;6194663;28;20539;-65
2022/11/15 14:26:35;;;;;;;1.45;1.02;;;;;;;-4.98;59.43;95334.75;6196370;28;20042;-65
2022/11/15 14:29:39;;;;;;;2.53;1.20;;;;;;;-5.02;59.33;95336.53;6193919;28;20478;-66
2022/11/15 14:32:47;;;;;;;2.50;1.85;;;;;;;-4.99;59.55;95339.00;6176878;28;20038;-66
2022/11/15 14:35:52;;;;;;;2.13;1.50;;;;;;;-4.96;59.56;95340.66;6194218;28;20078;-65
2022/11/15 14:38:57;;;;;;;2.17;1.10;;;;;;;-5.02;59.80;95336.53;6195341;28;20050;-66
2022/11/15 14:42:00;;;;;;;1.52;1.17;;;;;;;-4.95;59.70;95342.34;6185294;28;20046;-65
2022/11/15 14:45:02;;;;;;;3.17;1.63;;;;;;;-4.92;59.68;95351.69;6173126;28;20050;-66
2022/11/15 14:48:05;;;;;;;2.13;1.43;;;;;;;-4.99;59.98;95354.41;6193094;28;20086;-64
2022/11/15 14:51:16;;;;;;;2.45;1.25;;;;;;;-5.06;60.13;95347.78;6204043;28;20189;-66
2022/11/15 14:54:17;;;;;;;3.25;1.67;;;;;;;-5.14;60.21;95356.56;6196532;28;20052;-66
2022/11/15 14:57:22;;;;;;;3.17;1.70;;;;;;;-5.15;60.20;95368.56;6194660;28;20038;-66
2022/11/15 15:00:24;;;;;;;5.25;1.73;;;;;;;-5.26;60.38;95362.88;6196331;28;20062;-66
2022/11/15 15:03:25;;;;;;;2.30;1.35;;;;;;;-5.34;60.18;95370.78;6196071;28;20410;-65